Time;durP1;ratioP1;P1;durP2;ratioP2;P2;SDS_P1;SDS_P2;PMS_P1;PMS_P2;Temp;Humidity;BMP_temperature;BMP_pressure;BME280_temperature;BME280_humidity;BME280_pressure;Samples;Min_cycle;Max_cycle;Signal;HPM_P1;HPM_P2
2022/06/19 00:01:16;;;;;;;4.00;2.30;;;;;;;18.53;59.26;96889.36;107155;1274;49378;-79
2022/06/19 00:03:50;;;;;;;2.70;2.10;;;;;;;18.56;59.31;96885.50;107135;1274;61969;-79
2022/06/19 00:06:21;;;;;;;3.70;2.00;;;;;;;18.56;59.20;96886.41;107158;1274;99297;-79
2022/06/19 00:08:53;;;;;;;5.10;2.50;;;;;;;18.59;59.17;96887.30;107251;1274;36170;-78
2022/06/19 00:11:25;;;;;;;3.90;2.60;;;;;;;18.62;59.09;96889.98;107223;1274;45617;-79
2022/06/19 00:13:56;;;;;;;4.20;2.20;;;;;;;18.62;59.00;96884.83;107090;1274;51054;-79
2022/06/19 00:16:28;;;;;;;2.30;1.90;;;;;;;18.63;59.05;96886.79;107208;1274;37482;-79
2022/06/19 00:18:59;;;;;;;3.20;2.30;;;;;;;18.63;58.95;96885.48;107210;1274;34421;-79
2022/06/19 00:21:30;;;;;;;2.80;2.30;;;;;;;18.66;58.97;96878.48;107152;1274;43702;-80
2022/06/19 00:24:02;;;;;;;5.70;2.50;;;;;;;18.67;58.90;96879.97;107156;1274;44307;-80
2022/06/19 00:26:33;;;;;;;5.90;2.70;;;;;;;18.66;58.84;96878.20;107157;1274;38291;-79
2022/06/19 00:29:04;;;;;;;2.90;2.50;;;;;;;18.67;58.87;96873.17;107159;1274;45006;-80
2022/06/19 00:31:36;;;;;;;3.20;2.10;;;;;;;18.71;58.92;96876.23;107165;1274;45458;-80
2022/06/19 00:34:07;;;;;;;6.20;2.70;;;;;;;18.75;58.84;96872.41;107144;1274;48116;-79
2022/06/19 00:36:39;;;;;;;3.50;2.40;;;;;;;18.76;58.75;96873.98;107155;1275;36734;-79
2022/06/19 00:39:10;;;;;;;2.30;2.10;;;;;;;18.77;58.63;96881.98;106956;1274;98935;-79
2022/06/19 00:41:44;;;;;;;2.90;2.10;;;;;;;18.75;58.78;96880.54;107270;1274;32682;-79
2022/06/19 00:44:17;;;;;;;3.50;2.60;;;;;;;18.74;58.72;96871.92;107251;1274;46339;-80
2022/06/19 00:46:52;;;;;;;2.70;2.20;;;;;;;18.73;58.76;96881.59;107152;1274;49397;-79
2022/06/19 00:49:29;;;;;;;5.40;2.90;;;;;;;18.71;58.96;96874.06;107172;1274;37425;-79
2022/06/19 00:52:06;;;;;;;3.50;2.20;;;;;;;18.68;58.91;96873.83;107090;1274;86033;-79
2022/06/19 00:54:46;;;;;;;3.70;1.90;;;;;;;18.67;59.07;96874.52;107218;1274;37613;-80
2022/06/19 00:57:18;;;;;;;3.50;2.20;;;;;;;18.70;58.97;96878.17;107193;1274;34440;-77
2022/06/19 00:59:53;;;;;;;4.00;2.30;;;;;;;18.71;58.94;96879.27;107186;1274;40614;-78
2022/06/19 01:02:25;;;;;;;2.90;2.00;;;;;;;18.68;58.95;96872.37;107225;1274;34235;-79
2022/06/19 01:04:58;;;;;;;2.60;2.30;;;;;;;18.69;58.88;96869.02;107231;1274;34161;-79
2022/06/19 01:07:30;;;;;;;3.30;2.50;;;;;;;18.67;59.01;96863.72;107196;1275;44883;-79
2022/06/19 01:10:01;;;;;;;3.10;2.20;;;;;;;18.62;58.98;96860.39;107224;1275;36038;-79
2022/06/19 01:12:32;;;;;;;5.20;2.50;;;;;;;18.58;59.15;96852.21;107212;1274;38934;-79
2022/06/19 01:15:09;;;;;;;3.40;2.10;;;;;;;18.56;59.11;96852.48;107235;1274;35886;-79
2022/06/19 01:17:40;;;;;;;3.00;1.90;;;;;;;18.57;59.28;96841.71;107276;1274;34694;-79
2022/06/19 01:20:15;;;;;;;3.40;2.50;;;;;;;18.53;59.27;96849.70;107206;1275;36082;-79
2022/06/19 01:22:54;;;;;;;2.60;2.20;;;;;;;18.50;59.43;96852.52;107293;1274;40368;-80
2022/06/19 01:25:29;;;;;;;2.70;2.20;;;;;;;18.51;59.47;96849.46;107214;1274;39403;-79
2022/06/19 01:30:55;;;;;;;2.60;2.20;;;;;;;18.53;59.43;96839.44;107150;1274;50558;-79
2022/06/19 01:33:31;;;;;;;3.70;2.40;;;;;;;18.52;59.53;96833.73;107221;1274;33237;-81
2022/06/19 01:36:04;;;;;;;3.40;2.10;;;;;;;18.49;59.64;96841.04;107209;1275;40055;-80
2022/06/19 01:38:36;;;;;;;2.70;1.90;;;;;;;18.48;59.62;96834.70;107233;1275;40425;-79
2022/06/19 01:41:11;;;;;;;3.20;2.40;;;;;;;18.46;59.81;96834.08;107197;1274;48515;-79
2022/06/19 01:43:43;;;;;;;4.10;2.10;;;;;;;18.42;59.88;96827.33;107263;1275;34053;-79
2022/06/19 01:46:15;;;;;;;2.80;2.50;;;;;;;18.40;59.85;96818.74;107093;1274;85898;-80
2022/06/19 01:48:47;;;;;;;4.60;1.90;;;;;;;18.38;59.76;96811.30;107290;1274;38845;-79
2022/06/19 01:51:18;;;;;;;2.30;2.10;;;;;;;18.36;59.99;96811.98;107202;1274;34993;-79
2022/06/19 01:53:54;;;;;;;2.50;2.20;;;;;;;18.33;59.91;96809.73;107195;1274;36779;-79
2022/06/19 01:56:26;;;;;;;2.80;2.40;;;;;;;18.31;59.99;96812.48;107200;1274;60995;-79
2022/06/19 01:59:03;;;;;;;3.40;2.50;;;;;;;18.29;60.19;96811.32;107192;1274;33457;-79
2022/06/19 02:01:36;;;;;;;4.10;2.20;;;;;;;18.28;60.16;96806.00;107229;1274;37051;-79
2022/06/19 02:04:08;;;;;;;2.90;1.90;;;;;;;18.30;60.12;96807.52;107185;1274;37517;-79
2022/06/19 02:06:42;;;;;;;2.60;2.20;;;;;;;18.33;60.12;96799.08;107250;1274;33037;-79
2022/06/19 02:09:19;;;;;;;5.60;2.00;;;;;;;18.35;60.06;96803.38;107318;1274;38138;-79
2022/06/19 02:11:51;;;;;;;2.90;2.00;;;;;;;18.35;60.04;96794.49;107106;1274;64050;-79
2022/06/19 02:14:22;;;;;;;2.90;2.20;;;;;;;18.34;59.97;96801.35;107270;1274;35520;-79
2022/06/19 02:16:54;;;;;;;5.20;2.40;;;;;;;18.32;59.92;96797.73;107214;1274;41030;-78
2022/06/19 02:19:27;;;;;;;2.80;2.40;;;;;;;18.33;59.97;96794.70;107218;1274;36841;-79
2022/06/19 02:21:58;;;;;;;2.30;2.10;;;;;;;18.32;59.96;96791.58;107168;1275;37342;-78
2022/06/19 02:24:30;;;;;;;3.70;2.20;;;;;;;18.30;60.07;96790.13;107259;1274;35831;-79
2022/06/19 02:27:04;;;;;;;4.60;2.30;;;;;;;18.30;59.94;96792.13;107213;1275;35432;-80
2022/06/19 02:29:39;;;;;;;4.40;3.00;;;;;;;18.33;59.94;96787.03;107216;1274;38653;-80
2022/06/19 02:32:22;;;;;;;2.40;2.20;;;;;;;18.33;59.88;96785.06;107211;1274;54939;-79
2022/06/19 02:34:54;;;;;;;2.50;2.30;;;;;;;18.31;59.99;96779.84;107262;1274;36331;-79
2022/06/19 02:37:31;;;;;;;3.90;2.00;;;;;;;18.31;59.98;96781.90;107205;1274;33930;-79
2022/06/19 02:40:13;;;;;;;4.30;2.40;;;;;;;18.29;60.00;96777.20;107164;1273;57726;-79
2022/06/19 02:42:46;;;;;;;2.50;2.20;;;;;;;18.28;59.96;96777.62;107266;1275;42013;-79
2022/06/19 02:45:21;;;;;;;3.00;2.30;;;;;;;18.30;59.96;96773.02;107245;1275;48195;-78
2022/06/19 02:47:54;;;;;;;3.60;2.00;;;;;;;18.32;59.84;96773.96;107233;1274;37087;-79
2022/06/19 02:50:28;;;;;;;4.30;1.90;;;;;;;18.33;59.82;96773.48;107146;1274;55049;-79
2022/06/19 02:52:59;;;;;;;2.70;2.00;;;;;;;18.37;59.73;96770.98;107095;1274;97974;-79
2022/06/19 02:55:30;;;;;;;3.70;2.00;;;;;;;18.42;59.62;96777.92;107200;1274;38434;-79
2022/06/19 02:58:01;;;;;;;2.30;2.00;;;;;;;18.45;59.52;96774.71;107253;1275;34623;-78
2022/06/19 03:00:32;;;;;;;3.40;2.30;;;;;;;18.49;59.38;96775.98;107153;1274;65027;-78
2022/06/19 03:03:09;;;;;;;4.40;2.30;;;;;;;18.50;59.25;96776.16;107165;1274;59854;-78
2022/06/19 03:05:40;;;;;;;3.50;2.40;;;;;;;18.50;59.26;96778.63;107227;1274;31938;-79
2022/06/19 03:08:12;;;;;;;2.90;2.40;;;;;;;18.49;59.24;96782.59;107050;1275;110227;-78
2022/06/19 03:10:43;;;;;;;3.40;2.10;;;;;;;18.51;59.29;96780.52;107322;1275;32356;-79
2022/06/19 03:13:14;;;;;;;3.00;1.80;;;;;;;18.52;59.15;96780.02;107294;1275;38294;-79
2022/06/19 03:15:45;;;;;;;3.80;2.20;;;;;;;18.53;59.23;96777.90;107221;1274;45483;-79
2022/06/19 03:18:16;;;;;;;3.10;2.20;;;;;;;18.56;59.16;96781.70;107269;1275;37953;-79
2022/06/19 03:20:47;;;;;;;3.10;2.10;;;;;;;18.61;59.01;96783.81;107148;1274;41740;-78
2022/06/19 03:23:19;;;;;;;2.60;1.90;;;;;;;18.71;58.82;96786.39;107159;1274;46898;-78
2022/06/19 03:25:50;;;;;;;3.50;2.10;;;;;;;18.78;58.52;96790.11;107154;1274;59578;-78
2022/06/19 03:28:21;;;;;;;3.90;2.20;;;;;;;18.82;58.41;96788.48;107274;1274;34605;-78
2022/06/19 03:30:54;;;;;;;2.60;1.60;;;;;;;18.85;58.41;96788.34;107194;1275;32843;-78
2022/06/19 03:33:26;;;;;;;4.70;2.30;;;;;;;18.88;58.23;96790.11;107151;1275;35237;-78
2022/06/19 03:35:57;;;;;;;1.90;1.70;;;;;;;18.91;58.10;96791.57;107166;1274;67245;-79
2022/06/19 03:38:28;;;;;;;3.70;2.10;;;;;;;18.91;58.24;96794.27;107218;1275;33168;-79
2022/06/19 03:40:59;;;;;;;4.00;2.30;;;;;;;18.93;58.11;96799.17;107063;1275;93489;-79
2022/06/19 03:43:33;;;;;;;3.00;2.20;;;;;;;18.95;58.03;96793.90;107221;1274;41254;-79
2022/06/19 03:46:12;;;;;;;2.30;2.10;;;;;;;19.00;58.02;96800.95;107238;1275;35772;-79
2022/06/19 03:48:45;;;;;;;4.00;2.20;;;;;;;19.03;57.99;96802.15;107267;1274;34570;-79
2022/06/19 03:51:17;;;;;;;3.20;2.60;;;;;;;19.05;57.82;96804.23;107219;1274;45919;-80
2022/06/19 03:53:48;;;;;;;4.50;2.20;;;;;;;19.05;57.77;96808.44;107214;1274;41875;-78
2022/06/19 03:56:22;;;;;;;3.80;1.90;;;;;;;19.06;57.83;96807.86;107197;1275;58301;-79
2022/06/19 03:58:54;;;;;;;2.20;1.90;;;;;;;19.09;57.75;96806.20;107138;1275;50671;-79
2022/06/19 04:01:28;;;;;;;1.90;1.70;;;;;;;19.13;57.65;96802.73;107173;1275;46372;-79
2022/06/19 04:04:00;;;;;;;2.30;1.70;;;;;;;19.16;57.67;96800.65;107225;1274;34241;-80
2022/06/19 04:06:33;;;;;;;4.40;2.30;;;;;;;19.18;57.70;96795.09;107191;1274;59206;-80
2022/06/19 04:09:07;;;;;;;4.60;2.00;;;;;;;19.16;57.74;96803.27;107220;1274;38415;-80
2022/06/19 04:11:40;;;;;;;3.10;1.90;;;;;;;19.18;57.72;96799.10;107197;1275;43034;-80
2022/06/19 04:14:11;;;;;;;3.80;2.00;;;;;;;19.19;57.75;96801.53;107255;1274;33868;-80
2022/06/19 04:16:44;;;;;;;3.40;1.80;;;;;;;19.20;57.90;96804.38;107199;1275;52825;-80
2022/06/19 04:19:15;;;;;;;3.70;1.90;;;;;;;19.21;57.81;96802.20;107241;1274;73098;-80
2022/06/19 04:21:47;;;;;;;3.10;2.30;;;;;;;19.26;57.82;96805.55;107297;1274;31681;-80
2022/06/19 04:24:20;;;;;;;3.40;2.20;;;;;;;19.32;57.74;96801.23;107210;1274;49916;-78
2022/06/19 04:26:52;;;;;;;3.30;2.30;;;;;;;19.36;57.57;96798.19;107329;1274;32847;-80
2022/06/19 04:29:23;;;;;;;3.20;2.10;;;;;;;19.41;57.45;96794.00;107228;1275;33806;-79
2022/06/19 04:31:56;;;;;;;3.20;2.00;;;;;;;19.46;57.22;96794.50;107195;1273;35494;-79
2022/06/19 04:34:27;;;;;;;3.00;1.70;;;;;;;19.51;57.35;96795.69;107182;1275;35200;-79
2022/06/19 04:36:58;;;;;;;5.10;2.00;;;;;;;19.61;57.08;96788.98;107172;1275;43419;-80
2022/06/19 04:39:29;;;;;;;3.20;2.00;;;;;;;19.74;56.95;96791.95;107212;1275;34856;-80
2022/06/19 04:42:01;;;;;;;2.30;1.90;;;;;;;19.83;56.67;96792.73;107266;1275;31190;-80
2022/06/19 04:44:32;;;;;;;2.60;2.00;;;;;;;19.90;56.29;96794.95;107270;1274;33014;-80
2022/06/19 04:47:04;;;;;;;2.50;1.60;;;;;;;19.97;56.20;96795.26;107191;1275;39883;-77
2022/06/19 04:49:35;;;;;;;2.80;2.10;;;;;;;20.09;56.13;96787.36;107225;1275;31711;-76
2022/06/19 04:52:07;;;;;;;3.30;1.90;;;;;;;20.21;56.02;96783.11;107073;1274;284934;-75
2022/06/19 04:54:41;;;;;;;4.00;2.30;;;;;;;20.31;55.67;96777.70;107211;1275;47694;-75
2022/06/19 04:57:12;;;;;;;4.40;1.80;;;;;;;20.47;55.39;96780.42;107309;1274;36681;-76
2022/06/19 04:59:43;;;;;;;2.50;1.90;;;;;;;20.63;55.25;96782.32;107276;1275;34448;-75
2022/06/19 05:02:16;;;;;;;3.30;1.80;;;;;;;20.77;54.86;96775.11;107291;1274;34451;-75
2022/06/19 05:04:52;;;;;;;4.50;2.00;;;;;;;20.90;54.99;96777.34;107254;1274;33686;-74
2022/06/19 05:07:23;;;;;;;2.30;1.80;;;;;;;21.06;54.48;96777.96;107227;1275;40916;-75
2022/06/19 05:09:54;;;;;;;3.00;1.90;;;;;;;21.17;53.95;96771.51;107199;1274;39759;-75
2022/06/19 05:12:25;;;;;;;4.10;2.00;;;;;;;21.30;53.83;96767.41;107253;1275;35781;-75
2022/06/19 05:14:56;;;;;;;4.20;2.30;;;;;;;21.45;53.42;96771.77;107258;1275;30938;-74
2022/06/19 05:17:27;;;;;;;3.40;1.50;;;;;;;21.71;53.17;96767.23;107188;1274;43185;-75
2022/06/19 05:19:58;;;;;;;4.50;2.30;;;;;;;21.98;52.42;96765.73;107223;1275;32691;-75
2022/06/19 05:22:30;;;;;;;2.60;2.10;;;;;;;22.25;51.55;96762.70;107239;1274;32319;-75
2022/06/19 05:25:04;;;;;;;2.00;1.60;;;;;;;22.98;51.01;96760.92;107209;1274;43094;-75
2022/06/19 05:27:36;;;;;;;2.30;1.70;;;;;;;24.38;48.53;96758.95;107269;1275;32771;-76
2022/06/19 05:30:11;;;;;;;3.50;1.30;;;;;;;25.68;46.58;96755.08;107214;1274;33432;-76
2022/06/19 05:32:42;;;;;;;2.00;1.70;;;;;;;26.70;44.57;96749.66;107184;1274;44727;-78
2022/06/19 05:35:14;;;;;;;2.20;1.40;;;;;;;27.52;41.93;96755.95;107255;1274;47250;-80
2022/06/19 05:37:45;;;;;;;3.00;1.60;;;;;;;27.99;40.84;96753.02;107211;1274;51164;-78
2022/06/19 05:40:16;;;;;;;2.50;1.40;;;;;;;28.46;39.54;96757.09;107200;1274;67630;-79
2022/06/19 05:42:48;;;;;;;3.70;1.60;;;;;;;28.96;38.42;96746.88;107189;1275;38748;-79
2022/06/19 05:45:20;;;;;;;3.50;1.50;;;;;;;29.17;37.59;96746.27;107185;1275;36896;-79
2022/06/19 05:47:51;;;;;;;3.80;1.50;;;;;;;29.37;37.58;96749.77;107160;1274;63763;-74
2022/06/19 05:50:23;;;;;;;3.90;1.50;;;;;;;29.76;36.62;96748.87;107107;1275;86327;-77
2022/06/19 05:52:54;;;;;;;2.60;1.50;;;;;;;30.30;36.89;96751.06;107180;1274;34313;-75
2022/06/19 05:55:25;;;;;;;1.70;1.50;;;;;;;30.49;34.47;96748.80;107213;1275;46617;-75
2022/06/19 05:57:56;;;;;;;3.40;1.50;;;;;;;30.28;34.57;96753.83;106216;1274;1159602;-77
2022/06/19 06:00:28;;;;;;;2.70;1.60;;;;;;;30.33;34.50;96749.48;107199;1275;35146;-79
2022/06/19 06:02:59;;;;;;;3.60;1.80;;;;;;;30.54;34.71;96742.18;107224;1275;32441;-79
2022/06/19 06:05:31;;;;;;;3.30;1.80;;;;;;;31.21;34.09;96745.63;105675;1274;2055205;-80
2022/06/19 06:08:05;;;;;;;3.00;1.30;;;;;;;31.38;33.07;96742.22;105602;1274;2127532;-77
2022/06/19 06:10:36;;;;;;;3.00;1.40;;;;;;;31.84;33.01;96734.93;107199;1274;56446;-78
2022/06/19 06:13:10;;;;;;;5.00;1.70;;;;;;;31.93;32.24;96736.14;107206;1275;35135;-80
2022/06/19 06:15:41;;;;;;;2.50;1.50;;;;;;;31.96;31.61;96733.91;106715;1275;184600;-79
2022/06/19 06:18:13;;;;;;;3.60;1.70;;;;;;;32.21;32.06;96736.57;107127;1275;89733;-78
2022/06/19 06:20:45;;;;;;;2.80;1.60;;;;;;;32.76;31.67;96732.33;107181;1275;38010;-78
2022/06/19 06:23:16;;;;;;;3.50;1.20;;;;;;;33.06;31.12;96730.73;107219;1274;38396;-78
2022/06/19 06:25:47;;;;;;;3.00;1.40;;;;;;;33.44;31.39;96725.27;105871;1274;1763195;-77
2022/06/19 06:28:18;;;;;;;3.10;1.70;;;;;;;33.83;30.56;96725.36;107185;1274;51945;-78
2022/06/19 06:30:50;;;;;;;1.40;1.30;;;;;;;34.05;30.52;96718.61;107222;1274;40953;-81
2022/06/19 06:33:21;;;;;;;1.30;1.20;;;;;;;34.25;29.70;96720.95;106923;1274;149034;-78
2022/06/19 06:35:52;;;;;;;1.70;1.40;;;;;;;34.35;29.33;96714.30;107180;1274;50272;-79
2022/06/19 06:38:24;;;;;;;3.40;1.60;;;;;;;34.56;29.26;96708.39;107129;1274;101413;-77
2022/06/19 06:40:56;;;;;;;2.10;1.30;;;;;;;34.91;29.13;96707.84;106987;1274;84527;-79
2022/06/19 06:43:28;;;;;;;1.30;1.20;;;;;;;34.96;27.77;96705.77;107197;1275;37696;-79
2022/06/19 06:46:08;;;;;;;2.80;1.60;;;;;;;34.87;27.80;96706.00;107251;1274;35127;-78
2022/06/19 06:48:40;;;;;;;2.60;1.20;;;;;;;35.28;27.83;96704.90;105675;1274;1506819;-77
2022/06/19 06:51:13;;;;;;;1.50;1.40;;;;;;;35.51;27.74;96704.10;107094;1274;62287;-79
2022/06/19 06:53:44;;;;;;;1.80;1.10;;;;;;;35.60;27.39;96711.85;107301;1274;31580;-78
2022/06/19 06:56:18;;;;;;;2.00;1.30;;;;;;;36.03;27.18;96709.98;107282;1274;32737;-79
2022/06/19 06:58:53;;;;;;;1.60;1.40;;;;;;;36.12;26.71;96708.20;107052;1275;72066;-80
2022/06/19 07:01:25;;;;;;;1.50;1.20;;;;;;;36.20;26.30;96706.34;106825;1274;92009;-79
2022/06/19 07:03:59;;;;;;;2.00;1.40;;;;;;;36.38;26.00;96707.73;106915;1275;195108;-79
2022/06/19 07:06:32;;;;;;;3.70;1.30;;;;;;;36.33;26.01;96698.98;104872;1274;2240892;-77
2022/06/19 07:09:07;;;;;;;2.50;1.40;;;;;;;36.79;26.68;96698.27;106968;1274;156126;-76
2022/06/19 07:11:41;;;;;;;4.00;1.50;;;;;;;37.49;25.42;96693.75;107317;1274;69548;-77
2022/06/19 07:14:13;;;;;;;2.00;1.40;;;;;;;37.57;25.69;96698.23;107336;1275;93057;-75
2022/06/19 07:16:46;;;;;;;2.50;1.20;;;;;;;37.90;25.22;96691.33;105697;1274;1979963;-77
2022/06/19 07:19:18;;;;;;;3.80;1.60;;;;;;;38.29;25.07;96693.77;107124;1275;96372;-76
2022/06/19 07:21:50;;;;;;;2.00;1.50;;;;;;;38.37;23.81;96693.52;106944;1274;104919;-75
2022/06/19 07:24:22;;;;;;;1.70;1.30;;;;;;;37.78;24.02;96689.20;106281;1274;1328210;-70
2022/06/19 07:26:54;;;;;;;1.70;1.30;;;;;;;37.71;25.03;96682.59;107043;1275;94888;-71
2022/06/19 07:29:26;;;;;;;2.80;1.60;;;;;;;38.04;24.71;96678.33;107155;1274;83715;-74
2022/06/19 07:31:57;;;;;;;2.10;1.30;;;;;;;38.25;24.01;96673.37;107116;1274;89086;-70
2022/06/19 07:34:29;;;;;;;3.80;1.50;;;;;;;38.00;23.96;96663.10;107222;1274;49307;-73
2022/06/19 07:37:00;;;;;;;3.50;1.20;;;;;;;37.71;24.39;96660.45;107233;1274;36881;-73
2022/06/19 07:39:32;;;;;;;2.50;1.40;;;;;;;37.64;24.48;96655.10;107214;1275;29294;-71
2022/06/19 07:42:08;;;;;;;3.60;1.20;;;;;;;37.24;24.33;96651.42;107124;1275;38229;-71
2022/06/19 07:44:41;;;;;;;3.10;1.30;;;;;;;36.94;24.56;96646.58;107167;1274;39351;-71
2022/06/19 07:50:15;;;;;;;2.70;1.40;;;;;;;38.00;24.10;96647.67;107198;1274;38202;-73
2022/06/19 07:52:48;;;;;;;3.80;1.60;;;;;;;37.86;24.30;96644.67;107391;1274;36186;-72
2022/06/19 07:55:23;;;;;;;1.40;1.00;;;;;;;37.96;24.32;96652.34;107410;1275;36018;-73
2022/06/19 07:57:54;;;;;;;3.40;1.50;;;;;;;38.16;24.35;96652.61;107338;1274;36658;-72
2022/06/19 08:00:29;;;;;;;2.10;1.40;;;;;;;38.51;23.61;96652.16;107387;1274;32460;-70
2022/06/19 08:03:02;;;;;;;2.10;1.40;;;;;;;38.62;24.10;96647.89;107244;1275;40923;-70
2022/06/19 08:05:36;;;;;;;1.60;1.10;;;;;;;39.04;23.57;96648.73;107222;1275;41397;-71
2022/06/19 08:08:13;;;;;;;2.90;1.40;;;;;;;38.90;23.25;96651.87;107264;1274;40711;-70
2022/06/19 08:10:47;;;;;;;2.20;1.50;;;;;;;38.53;23.24;96653.26;107303;1274;29684;-71
2022/06/19 08:13:20;;;;;;;1.70;1.10;;;;;;;39.21;23.86;96656.98;107147;1275;38030;-72
2022/06/19 08:15:53;;;;;;;5.50;1.40;;;;;;;39.33;22.69;96662.20;107131;1274;49800;-72
2022/06/19 08:18:25;;;;;;;2.40;1.30;;;;;;;39.16;23.39;96660.92;107330;1275;35645;-70
2022/06/19 08:20:57;;;;;;;2.60;1.40;;;;;;;38.92;23.16;96662.96;107106;1275;75240;-72
2022/06/19 08:23:28;;;;;;;2.60;1.40;;;;;;;38.50;23.38;96649.27;107208;1275;36720;-72
2022/06/19 08:26:01;;;;;;;1.60;1.30;;;;;;;38.30;23.13;96646.31;107137;1275;103346;-72
2022/06/19 08:28:36;;;;;;;3.20;1.30;;;;;;;38.40;23.45;96649.46;107090;1275;122581;-74
2022/06/19 08:31:08;;;;;;;2.80;1.50;;;;;;;38.68;23.51;96652.14;107189;1275;92762;-75
2022/06/19 08:33:40;;;;;;;1.50;1.30;;;;;;;38.92;22.82;96654.98;107356;1274;36480;-75
2022/06/19 08:36:13;;;;;;;2.10;1.50;;;;;;;39.03;22.70;96654.72;107208;1274;84402;-75
2022/06/19 08:38:49;;;;;;;3.00;1.30;;;;;;;39.14;23.05;96661.16;107395;1274;76420;-74
2022/06/19 08:41:39;;;;;;;2.20;1.20;;;;;;;39.59;22.75;96662.90;107250;1274;82937;-75
2022/06/19 08:44:36;;;;;;;3.40;1.30;;;;;;;39.54;22.61;96666.27;107353;1274;57535;-75
2022/06/19 08:47:28;;;;;;;2.50;1.40;;;;;;;39.51;22.76;96667.25;106824;1274;191536;-74
2022/06/19 08:50:09;;;;;;;2.40;1.20;;;;;;;39.05;23.17;96662.46;107320;1274;33970;-74
2022/06/19 08:52:52;;;;;;;1.90;1.10;;;;;;;37.65;23.83;96660.64;107291;1275;34330;-74
2022/06/19 08:55:35;;;;;;;2.10;1.50;;;;;;;36.08;24.72;96655.36;106971;1275;82520;-74
2022/06/19 08:58:17;;;;;;;4.50;1.40;;;;;;;34.38;26.65;96653.77;107082;1275;69414;-75
2022/06/19 09:00:55;;;;;;;6.20;1.70;;;;;;;33.70;28.02;96642.34;107145;1274;45489;-75
2022/06/19 09:05:36;;;;;;;2.60;1.40;;;;;;;32.98;28.65;96639.38;107045;1275;146482;-74
2022/06/19 09:06:33;;;;;;;3.60;1.70;;;;;;;31.83;29.86;96636.02;107264;1274;69931;-74
2022/06/19 09:09:27;;;;;;;3.50;1.60;;;;;;;31.71;30.15;96636.83;107051;1274;84017;-74
2022/06/19 09:12:20;;;;;;;4.40;1.80;;;;;;;31.24;30.94;96632.66;107365;1274;61089;-74
2022/06/19 09:15:05;;;;;;;2.00;1.30;;;;;;;30.90;31.78;96632.94;107196;1275;82855;-75
2022/06/19 09:17:47;;;;;;;5.80;1.90;;;;;;;30.72;31.96;96636.22;107229;1274;74440;-74
2022/06/19 09:20:29;;;;;;;4.90;1.50;;;;;;;30.63;32.52;96633.59;107186;1274;136538;-76
2022/06/19 09:23:31;;;;;;;2.30;1.30;;;;;;;30.26;32.81;96634.28;107252;1274;79250;-73
2022/06/19 09:26:08;;;;;;;2.50;1.50;;;;;;;29.98;33.40;96633.19;107249;1275;38532;-75
2022/06/19 09:28:46;;;;;;;4.60;1.80;;;;;;;30.03;33.69;96628.16;107251;1274;35512;-76
2022/06/19 09:31:21;;;;;;;5.50;1.90;;;;;;;30.01;33.76;96628.48;107283;1274;34615;-76
2022/06/19 09:33:59;;;;;;;6.40;1.70;;;;;;;29.73;34.22;96627.64;107241;1274;43483;-76
2022/06/19 09:36:35;;;;;;;4.20;1.40;;;;;;;29.90;34.55;96624.91;107258;1275;35990;-76
2022/06/19 09:39:13;;;;;;;5.20;1.50;;;;;;;30.01;33.39;96628.18;107260;1274;39935;-76
2022/06/19 09:41:52;;;;;;;2.50;1.70;;;;;;;29.89;33.67;96628.29;107257;1274;47176;-74
2022/06/19 09:44:33;;;;;;;5.50;1.70;;;;;;;29.58;34.11;96629.93;107277;1275;38703;-75
2022/06/19 09:47:10;;;;;;;4.80;1.70;;;;;;;29.49;33.80;96629.37;107147;1275;34679;-75
2022/06/19 09:49:47;;;;;;;4.20;1.40;;;;;;;29.23;33.36;96631.63;107222;1274;37034;-75
2022/06/19 09:52:24;;;;;;;5.20;1.60;;;;;;;29.12;32.93;96621.64;107232;1274;45504;-74
2022/06/19 09:55:04;;;;;;;5.10;1.90;;;;;;;28.88;33.07;96619.11;107121;1275;45432;-74
2022/06/19 09:57:40;;;;;;;10.20;1.50;;;;;;;28.88;32.91;96616.63;107210;1275;36497;-75
2022/06/19 10:00:17;;;;;;;4.70;1.70;;;;;;;28.79;32.94;96615.62;107259;1274;39773;-75
2022/06/19 10:02:54;;;;;;;8.50;1.70;;;;;;;28.86;33.48;96610.06;107274;1274;34904;-74
2022/06/19 10:05:35;;;;;;;6.90;1.80;;;;;;;28.79;33.16;96607.73;107091;1274;57201;-75
2022/06/19 10:08:11;;;;;;;4.30;1.80;;;;;;;28.88;33.49;96605.36;107179;1275;37604;-71
2022/06/19 10:10:47;;;;;;;5.00;1.60;;;;;;;28.89;33.12;96601.86;107011;1276;45987;-74
2022/06/19 10:13:25;;;;;;;4.60;1.50;;;;;;;28.76;33.48;96596.84;106992;1274;38235;-75
2022/06/19 10:15:59;;;;;;;3.30;1.50;;;;;;;28.90;34.13;96597.66;107052;1274;43026;-75
2022/06/19 10:18:35;;;;;;;7.60;2.00;;;;;;;28.94;33.64;96593.66;106927;1274;44231;-74
2022/06/19 10:21:11;;;;;;;5.50;2.10;;;;;;;29.05;34.46;96592.73;106996;1274;45888;-74
2022/06/19 10:23:57;;;;;;;5.60;1.90;;;;;;;29.26;34.10;96586.44;107257;1275;31632;-74
2022/06/19 10:26:36;;;;;;;7.60;2.00;;;;;;;29.36;34.19;96584.73;107200;1274;48101;-75
2022/06/19 10:29:37;;;;;;;5.80;1.70;;;;;;;29.40;34.31;96578.92;107238;1274;45009;-73
2022/06/19 10:32:21;;;;;;;4.30;1.50;;;;;;;29.34;33.11;96578.27;107255;1274;35715;-74
2022/06/19 10:35:10;;;;;;;6.70;1.80;;;;;;;29.15;33.19;96582.14;107177;1275;46548;-74
2022/06/19 10:37:52;;;;;;;6.20;1.70;;;;;;;29.21;33.72;96588.89;107214;1277;41127;-74
2022/06/19 10:40:33;;;;;;;5.10;1.40;;;;;;;29.41;33.31;96584.13;108645;1274;43991;-74
2022/06/19 10:43:16;;;;;;;3.90;2.00;;;;;;;29.37;33.20;96576.99;107248;1277;38477;-74
2022/06/19 10:45:52;;;;;;;7.30;2.00;;;;;;;29.39;34.00;96569.40;107286;1277;44088;-74
2022/06/19 10:48:29;;;;;;;3.90;1.60;;;;;;;29.35;34.32;96569.05;107288;1274;31691;-74
2022/06/19 10:51:15;;;;;;;4.50;1.40;;;;;;;29.29;33.78;96566.67;107242;1274;47127;-75
2022/06/19 10:54:16;;;;;;;3.30;1.50;;;;;;;29.19;34.43;96567.53;107341;1275;32878;-74
2022/06/19 10:57:00;;;;;;;5.90;1.80;;;;;;;29.36;34.23;96566.87;107240;1274;57857;-74
2022/06/19 10:59:32;;;;;;;7.10;1.80;;;;;;;29.52;34.06;96567.92;107261;1274;48062;-74
2022/06/19 11:05:07;;;;;;;6.30;1.50;;;;;;;29.38;34.17;96558.80;107270;1274;33039;-74
2022/06/19 11:07:40;;;;;;;4.50;1.60;;;;;;;29.37;33.99;96555.61;107256;1274;48112;-74
2022/06/19 11:10:19;;;;;;;5.60;1.80;;;;;;;29.38;34.11;96549.20;107315;1274;36311;-74
2022/06/19 11:12:56;;;;;;;5.20;1.60;;;;;;;29.30;33.96;96552.33;107204;1274;37779;-75
2022/06/19 11:15:34;;;;;;;5.70;2.40;;;;;;;29.23;34.09;96544.40;107179;1274;46250;-74
2022/06/19 11:18:15;;;;;;;6.40;1.90;;;;;;;29.25;35.35;96539.16;107150;1277;46837;-74
2022/06/19 11:21:01;;;;;;;6.60;1.70;;;;;;;29.34;34.51;96537.23;107243;1274;47189;-75
2022/06/19 11:23:36;;;;;;;5.70;1.90;;;;;;;29.41;33.63;96533.96;107249;1274;36229;-74
2022/06/19 11:26:12;;;;;;;3.50;2.10;;;;;;;29.49;33.44;96541.97;107117;1274;50287;-74
2022/06/19 11:28:51;;;;;;;4.60;1.80;;;;;;;29.51;33.46;96538.66;107351;1274;45618;-75
2022/06/19 11:31:26;;;;;;;5.50;1.80;;;;;;;29.61;34.74;96537.88;107166;1274;43763;-75
2022/06/19 11:34:00;;;;;;;4.00;1.60;;;;;;;29.71;34.15;96536.38;107152;1274;96898;-74
2022/06/19 11:36:39;;;;;;;5.90;1.70;;;;;;;29.75;34.23;96531.81;107080;1274;49282;-75
2022/06/19 11:39:33;;;;;;;4.40;1.80;;;;;;;29.75;33.54;96527.98;107247;1274;47381;-74
2022/06/19 11:42:25;;;;;;;3.70;1.70;;;;;;;29.74;33.43;96525.42;107070;1274;49222;-74
2022/06/19 11:44:58;;;;;;;3.40;1.80;;;;;;;29.73;33.86;96525.13;107201;1277;33940;-74
2022/06/19 11:47:35;;;;;;;6.10;1.50;;;;;;;29.79;33.63;96519.19;107081;1274;112674;-74
2022/06/19 11:50:19;;;;;;;4.70;2.00;;;;;;;29.76;33.03;96516.42;107183;1274;55356;-74
2022/06/19 11:52:54;;;;;;;3.60;1.50;;;;;;;29.88;34.34;96514.35;107257;1274;38755;-75
2022/06/19 11:55:30;;;;;;;4.00;1.70;;;;;;;29.95;33.31;96504.96;107166;1274;57987;-74
2022/06/19 11:58:14;;;;;;;4.60;1.60;;;;;;;29.87;33.42;96505.93;107182;1276;48654;-74
2022/06/19 12:00:54;;;;;;;4.50;1.40;;;;;;;29.93;34.14;96502.10;107244;1274;53982;-74
2022/06/19 12:03:29;;;;;;;4.00;1.80;;;;;;;29.96;33.18;96498.48;107219;1274;36401;-74
2022/06/19 12:06:04;;;;;;;6.10;2.00;;;;;;;29.96;32.99;96496.05;107191;1278;51404;-74
2022/06/19 12:08:39;;;;;;;7.40;2.20;;;;;;;30.04;32.78;96493.26;107182;1275;56492;-74